Terminal Aerodrome Forecast
Issued by NWS Charleston, WV

Home | Current Version | Previous Version | Text Only | Print | Product List | Glossary On
Versions: 1 2 3 4 5 6 7 8 9 10 11 12 13 14 15 16 17 18 19 20 21 22 23 24 25 26
000
FTUS41 KRLX 292149 AAD
TAFHTS
TAF AMD
KHTS 292149Z 2922/3018 21006KT P6SM VCTS BKN035CB
      TEMPO 2922/2923 VRB10G20KT 3SM -TSRA BKN030CB
     FM300100 VRB03KT 6SM BR SCT040 BKN080
     FM300600 VRB03KT 6SM BR BKN060=

USA.gov is the U.S. government's official web portal to all federal, state and local government web resources and services.